createdAt,value
2022-09-25T00:02:56.664Z,97977.67
2022-09-25T00:06:05.719Z,97979.16
2022-09-25T00:09:10.171Z,97981.21
2022-09-25T00:12:13.312Z,97983.34
2022-09-25T00:15:16.357Z,97981.38
2022-09-25T00:18:40.673Z,97978.86
2022-09-25T00:21:43.775Z,97971.64
2022-09-25T00:24:47.633Z,97968.42
2022-09-25T00:27:53.508Z,97966.94
2022-09-25T00:30:56.919Z,97963.64
2022-09-25T00:34:03.073Z,97959.08
2022-09-25T00:37:07.160Z,97959.86
2022-09-25T00:40:10.664Z,97957.91
2022-09-25T00:43:33.514Z,97961.52
2022-09-25T00:46:44.543Z,97956.41
2022-09-25T00:49:47.617Z,97952.95
2022-09-25T00:52:54.588Z,97949.42
2022-09-25T00:55:59.733Z,97945.48
2022-09-25T00:59:02.959Z,97949.71
2022-09-25T01:02:10.217Z,97946.59
2022-09-25T01:05:17.667Z,97946.11
2022-09-25T01:08:24.572Z,97949.39
2022-09-25T01:11:27.900Z,97948.36
2022-09-25T01:14:34.267Z,97946.09
2022-09-25T01:17:58.479Z,97950.17
2022-09-25T01:21:24.424Z,97950.10
2022-09-25T01:25:16.405Z,97946.09
2022-09-25T01:28:29.676Z,97942.31
2022-09-25T01:31:46.383Z,97937.84
2022-09-25T01:35:04.619Z,97937.45
2022-09-25T01:38:23.415Z,97937.21
2022-09-25T01:41:31.743Z,97933.44
2022-09-25T01:44:49.927Z,97938.94
2022-09-25T01:47:53.198Z,97943.56
2022-09-25T01:51:24.706Z,97941.77
2022-09-25T01:54:40.147Z,97941.37
2022-09-25T01:57:59.335Z,97939.40
2022-09-25T02:01:13.587Z,97940.27
2022-09-25T02:04:47.809Z,97935.77
2022-09-25T02:07:55.608Z,97936.86
2022-09-25T02:11:03.990Z,97941.51
2022-09-25T02:14:37.866Z,97942.77
2022-09-25T02:18:37.278Z,97941.04
2022-09-25T02:21:42.948Z,97940.88
2022-09-25T02:25:07.141Z,97941.98
2022-09-25T02:28:10.131Z,97941.66
2022-09-25T02:31:16.188Z,97943.77
2022-09-25T02:34:19.888Z,97942.45
2022-09-25T02:37:23.714Z,97944.95
2022-09-25T02:40:44.825Z,97939.70
2022-09-25T02:44:11.535Z,97939.05
2022-09-25T02:47:57.260Z,97939.38
2022-09-25T02:51:11.308Z,97936.78
2022-09-25T02:54:27.489Z,97932.70
2022-09-25T02:57:45.496Z,97935.84
2022-09-25T03:00:52.240Z,97933.65
2022-09-25T03:03:58.103Z,97930.73
2022-09-25T03:07:02.551Z,97930.65
2022-09-25T03:10:06.693Z,97925.73
2022-09-25T03:13:20.114Z,97924.85
2022-09-25T03:16:47.859Z,97920.93
2022-09-25T03:19:50.802Z,97917.25
2022-09-25T03:22:55.829Z,97916.86
2022-09-25T03:25:59.544Z,97909.88
2022-09-25T03:29:02.651Z,97910.04
2022-09-25T03:32:05.690Z,97911.55
2022-09-25T03:35:09.214Z,97912.26
2022-09-25T03:38:12.592Z,97911.85
2022-09-25T03:41:20.218Z,97909.52
2022-09-25T03:44:23.067Z,97905.58
2022-09-25T03:47:25.920Z,97904.08
2022-09-25T03:50:28.887Z,97907.70
2022-09-25T03:53:33.573Z,97905.27
2022-09-25T03:56:36.672Z,97903.23
2022-09-25T03:59:39.598Z,97905.98
2022-09-25T04:02:42.608Z,97905.83
2022-09-25T04:05:46.276Z,97906.91
2022-09-25T04:08:50.073Z,97909.74
2022-09-25T04:11:55.321Z,97908.34
2022-09-25T04:14:58.207Z,97909.67
2022-09-25T04:18:05.903Z,97909.52
2022-09-25T04:21:12.268Z,97912.64
2022-09-25T04:24:33.704Z,97910.45
2022-09-25T04:27:36.986Z,97912.81
2022-09-25T04:30:39.962Z,97912.90
2022-09-25T04:33:48.818Z,97912.50
2022-09-25T04:36:51.801Z,97906.38
2022-09-25T04:39:56.137Z,97909.42
2022-09-25T04:43:01.128Z,97913.66
2022-09-25T04:46:06.297Z,97913.02
2022-09-25T04:49:09.322Z,97912.16
2022-09-25T04:52:13.885Z,97914.27
2022-09-25T04:55:24.901Z,97913.56
2022-09-25T04:58:27.949Z,97917.49
2022-09-25T05:01:31.015Z,97917.57
2022-09-25T05:04:34.097Z,97918.89
2022-09-25T05:07:37.176Z,97916.75
2022-09-25T05:10:40.332Z,97916.29
2022-09-25T05:13:43.951Z,97919.98
2022-09-25T05:16:47.250Z,97920.59
2022-09-25T05:19:50.086Z,97920.90
2022-09-25T05:22:59.519Z,97917.90
2022-09-25T05:26:03.048Z,97918.05
2022-09-25T05:29:06.290Z,97919.85
2022-09-25T05:32:09.257Z,97915.91
2022-09-25T05:35:12.118Z,97912.21
2022-09-25T05:38:15.144Z,97917.63
2022-09-25T05:41:18.719Z,97913.31
2022-09-25T05:44:21.628Z,97917.92
2022-09-25T05:47:24.497Z,97916.27
2022-09-25T05:50:27.630Z,97921.43
2022-09-25T05:53:39.522Z,97920.17
2022-09-25T05:56:50.196Z,97918.73
2022-09-25T05:59:54.359Z,97917.23
2022-09-25T06:02:57.287Z,97916.75
2022-09-25T06:06:02.609Z,97905.66
2022-09-25T06:09:07.491Z,97897.55
2022-09-25T06:12:10.368Z,97890.48
2022-09-25T06:15:13.279Z,97888.83
2022-09-25T06:18:16.235Z,97891.78
2022-09-25T06:21:19.181Z,97893.52
2022-09-25T06:24:22.113Z,97890.96
2022-09-25T06:27:25.373Z,97890.16
2022-09-25T06:30:36.875Z,97890.77
2022-09-25T06:33:50.233Z,97885.52
2022-09-25T06:36:53.146Z,97889.41
2022-09-25T06:39:56.078Z,97893.00
2022-09-25T06:43:00.532Z,97895.59
2022-09-25T06:46:04.180Z,97901.60
2022-09-25T06:49:07.175Z,97901.50
2022-09-25T06:52:10.086Z,97901.71
2022-09-25T06:55:12.993Z,97902.92
2022-09-25T06:58:22.802Z,97905.66
2022-09-25T07:01:25.783Z,97905.08
2022-09-25T07:04:28.687Z,97905.05
2022-09-25T07:07:31.629Z,97905.48
2022-09-25T07:10:34.502Z,97903.63
2022-09-25T07:13:37.402Z,97907.08
2022-09-25T07:16:40.490Z,97901.15
2022-09-25T07:19:43.328Z,97903.02
2022-09-25T07:22:46.140Z,97905.27
2022-09-25T07:25:49.515Z,97903.67
2022-09-25T07:29:01.411Z,97904.70
2022-09-25T07:32:04.859Z,97905.79
2022-09-25T07:35:08.035Z,97910.27
2022-09-25T07:38:10.915Z,97914.48
2022-09-25T07:41:13.842Z,97918.70
2022-09-25T07:44:37.900Z,97919.86
2022-09-25T07:47:39.887Z,97924.17
2022-09-25T07:50:42.720Z,97923.43
2022-09-25T07:53:45.712Z,97919.88
2022-09-25T07:56:48.531Z,97917.95
2022-09-25T07:59:51.360Z,97914.39
2022-09-25T08:02:59.109Z,97913.79
2022-09-25T08:06:03.640Z,97916.91
2022-09-25T08:09:10.345Z,97910.24
2022-09-25T08:12:13.714Z,97912.41
2022-09-25T08:15:16.754Z,97917.73
2022-09-25T08:18:19.716Z,97915.40
2022-09-25T08:21:22.600Z,97915.42
2022-09-25T08:24:25.499Z,97914.41
2022-09-25T08:27:29.386Z,97914.92
2022-09-25T08:30:32.942Z,97916.04
2022-09-25T08:33:37.106Z,97911.60
2022-09-25T08:36:40.065Z,97909.84
2022-09-25T08:39:43.131Z,97909.98
2022-09-25T08:42:49.803Z,97912.64
2022-09-25T08:46:13.389Z,97903.11
2022-09-25T08:49:17.449Z,97899.07
2022-09-25T08:52:22.867Z,97899.45
2022-09-25T08:55:47.246Z,97898.69
2022-09-25T08:58:56.099Z,97897.62
2022-09-25T09:02:11.328Z,97896.54
2022-09-25T09:05:33.931Z,97900.27
2022-09-25T09:08:37.840Z,97896.23
2022-09-25T09:11:50.361Z,97894.56
2022-09-25T09:15:07.025Z,97891.39
2022-09-25T09:18:28.066Z,97889.48
2022-09-25T09:21:35.525Z,97885.99
2022-09-25T09:25:03.257Z,97882.02
2022-09-25T09:28:22.930Z,97880.35
2022-09-25T09:31:45.950Z,97879.34
2022-09-25T09:35:06.268Z,97881.33
2022-09-25T09:38:42.480Z,97878.38
2022-09-25T09:41:54.776Z,97880.27
2022-09-25T09:45:14.451Z,97879.88
2022-09-25T09:48:30.533Z,97879.19
2022-09-25T09:51:40.488Z,97875.99
2022-09-25T09:55:31.002Z,97874.02
2022-09-25T09:58:45.235Z,97875.15
2022-09-25T10:02:14.613Z,97872.02
2022-09-25T10:05:20.938Z,97867.61
2022-09-25T10:08:24.327Z,97866.67
2022-09-25T10:11:31.569Z,97862.88
2022-09-25T10:14:41.516Z,97852.09
2022-09-25T10:17:44.845Z,97846.44
2022-09-25T10:20:57.527Z,97844.02
2022-09-25T10:24:03.280Z,97842.60
2022-09-25T10:27:24.948Z,97833.50
2022-09-25T10:30:28.138Z,97832.02
2022-09-25T10:33:32.048Z,97833.85
2022-09-25T10:36:39.359Z,97828.27
2022-09-25T10:39:45.283Z,97830.91
2022-09-25T10:42:49.276Z,97831.61
2022-09-25T10:46:07.073Z,97832.00
2022-09-25T10:49:36.276Z,97831.86
2022-09-25T10:52:52.337Z,97834.18
2022-09-25T10:56:05.191Z,97835.70
2022-09-25T10:59:16.300Z,97831.20
2022-09-25T11:02:31.335Z,97830.55
2022-09-25T11:05:36.967Z,97827.02
2022-09-25T11:08:41.409Z,97818.46
2022-09-25T11:11:47.285Z,97819.46
2022-09-25T11:15:03.259Z,97821.99
2022-09-25T11:18:06.467Z,97812.70
2022-09-25T11:21:18.279Z,97815.48
2022-09-25T11:25:01.212Z,97814.23
2022-09-25T11:28:14.983Z,97816.30
2022-09-25T11:31:44.155Z,97815.27
2022-09-25T11:35:11.543Z,97822.15
2022-09-25T11:39:01.137Z,97830.14
2022-09-25T11:42:19.429Z,97834.20
2022-09-25T11:45:43.903Z,97838.00
2022-09-25T11:49:12.483Z,97822.80
2022-09-25T11:52:38.042Z,97806.47
2022-09-25T11:56:00.325Z,97792.70
2022-09-25T11:59:06.192Z,97787.86
2022-09-25T12:02:15.095Z,97784.46
2022-09-25T12:05:40.410Z,97778.05
2022-09-25T12:09:03.086Z,97768.45
2022-09-25T12:12:15.575Z,97766.23
2022-09-25T12:15:38.580Z,97765.38
2022-09-25T12:18:56.611Z,97769.46
2022-09-25T12:22:05.916Z,97768.23
2022-09-25T12:25:24.131Z,97766.77
2022-09-25T12:28:41.644Z,97760.64
2022-09-25T12:32:05.602Z,97752.05
2022-09-25T12:35:22.843Z,97746.89
2022-09-25T12:38:49.284Z,97749.02
2022-09-25T12:42:10.245Z,97743.86
2022-09-25T12:45:19.862Z,97740.48
2022-09-25T12:48:34.576Z,97737.52
2022-09-25T12:51:45.685Z,97733.59
2022-09-25T12:55:07.406Z,97732.32
2022-09-25T12:58:39.167Z,97736.52
2022-09-25T13:02:06.184Z,97731.42
2022-09-25T13:05:21.752Z,97729.63
2022-09-25T13:08:43.598Z,97729.73
2022-09-25T13:11:55.218Z,97729.13
2022-09-25T13:15:04.467Z,97728.41
2022-09-25T13:18:17.510Z,97732.33
2022-09-25T13:21:36.989Z,97739.02
2022-09-25T13:24:45.852Z,97733.02
2022-09-25T13:27:50.198Z,97730.11
2022-09-25T13:31:10.285Z,97722.89
2022-09-25T13:34:21.094Z,97725.32
2022-09-25T13:37:28.383Z,97719.29
2022-09-25T13:40:45.802Z,97717.94
2022-09-25T13:43:49.604Z,97722.59
2022-09-25T13:47:36.619Z,97721.13
2022-09-25T13:50:47.211Z,97724.17
2022-09-25T13:54:03.191Z,97719.28
2022-09-25T13:57:06.593Z,97715.08
2022-09-25T14:00:15.906Z,97706.30
2022-09-25T14:03:44.946Z,97701.60
2022-09-25T14:06:54.678Z,97698.35
2022-09-25T14:10:00.535Z,97700.27
2022-09-25T14:13:07.118Z,97706.48
2022-09-25T14:16:22.970Z,97703.90
2022-09-25T14:19:32.952Z,97700.73
2022-09-25T14:22:43.204Z,97693.95
2022-09-25T14:25:47.685Z,97684.08
2022-09-25T14:28:52.710Z,97688.98
2022-09-25T14:32:04.029Z,97691.20
2022-09-25T14:35:21.917Z,97690.20
2022-09-25T14:38:43.081Z,97698.76
2022-09-25T14:41:46.677Z,97694.70
2022-09-25T14:45:06.366Z,97693.52
2022-09-25T14:48:20.023Z,97690.11
2022-09-25T14:51:41.853Z,97685.92
2022-09-25T14:54:48.150Z,97687.77
2022-09-25T14:57:52.369Z,97685.02
2022-09-25T15:01:00.135Z,97684.64
2022-09-25T15:04:06.215Z,97687.83
2022-09-25T15:07:14.578Z,97687.29
2022-09-25T15:10:38.605Z,97683.73
2022-09-25T15:13:42.532Z,97667.81
2022-09-25T15:17:04.302Z,97663.30
2022-09-25T15:20:13.665Z,97659.80
2022-09-25T15:23:21.339Z,97656.06
2022-09-25T15:26:24.538Z,97657.12
2022-09-25T15:29:27.728Z,97651.66
2022-09-25T15:32:39.841Z,97654.95
2022-09-25T15:35:42.837Z,97652.38
2022-09-25T15:38:53.696Z,97658.16
2022-09-25T15:41:56.986Z,97652.04
2022-09-25T15:45:23.575Z,97645.60
2022-09-25T15:48:31.424Z,97642.61
2022-09-25T15:51:36.299Z,97644.66
2022-09-25T15:54:45.220Z,97647.35
2022-09-25T15:57:51.437Z,97643.48
2022-09-25T16:01:20.211Z,97642.20
2022-09-25T16:04:46.143Z,97646.88
2022-09-25T16:07:49.731Z,97651.13
2022-09-25T16:11:06.732Z,97651.66
2022-09-25T16:14:20.954Z,97647.84
2022-09-25T16:17:33.810Z,97645.61
2022-09-25T16:20:39.509Z,97645.83
2022-09-25T16:23:43.614Z,97643.90
2022-09-25T16:26:52.817Z,97641.95
2022-09-25T16:30:02.724Z,97638.84
2022-09-25T16:33:23.850Z,97637.36
2022-09-25T16:36:36.869Z,97638.18
2022-09-25T16:39:40.088Z,97641.13
2022-09-25T16:42:45.064Z,97644.06
2022-09-25T16:46:01.704Z,97648.44
2022-09-25T16:49:05.496Z,97650.87
2022-09-25T16:52:08.970Z,97649.73
2022-09-25T16:55:21.602Z,97649.31
2022-09-25T16:58:24.871Z,97647.92
2022-09-25T17:01:28.687Z,97645.02
2022-09-25T17:04:35.883Z,97646.64
2022-09-25T17:07:39.796Z,97645.80
2022-09-25T17:10:42.873Z,97645.82
2022-09-25T17:13:46.440Z,97642.56
2022-09-25T17:16:50.900Z,97639.45
2022-09-25T17:19:53.874Z,97640.75
2022-09-25T17:22:57.577Z,97640.02
2022-09-25T17:26:06.156Z,97635.41
2022-09-25T17:29:09.803Z,97639.82
2022-09-25T17:32:18.860Z,97639.82
2022-09-25T17:35:45.937Z,97640.10
2022-09-25T17:38:49.036Z,97639.14
2022-09-25T17:41:52.295Z,97638.97
2022-09-25T17:44:57.588Z,97639.50
2022-09-25T17:48:04.297Z,97643.02
2022-09-25T17:51:15.923Z,97643.79
2022-09-25T17:54:19.149Z,97643.52
2022-09-25T17:57:22.473Z,97639.87
2022-09-25T18:00:25.937Z,97641.17
2022-09-25T18:03:31.445Z,97642.10
2022-09-25T18:06:34.467Z,97646.31
2022-09-25T18:09:40.865Z,97645.89
2022-09-25T18:12:43.862Z,97644.42
2022-09-25T18:15:49.935Z,97641.70
2022-09-25T18:19:11.919Z,97640.75
2022-09-25T18:22:19.003Z,97638.77
2022-09-25T18:25:26.226Z,97639.77
2022-09-25T18:28:30.211Z,97638.79
2022-09-25T18:31:33.748Z,97634.03
2022-09-25T18:34:36.796Z,97640.38
2022-09-25T18:41:03.374Z,97643.52
2022-09-25T18:44:07.470Z,97644.84
2022-09-25T18:47:11.711Z,97638.95
2022-09-25T18:50:20.582Z,97637.53
2022-09-25T18:53:24.785Z,97637.80
2022-09-25T18:56:28.446Z,97629.13
2022-09-25T18:59:31.440Z,97626.99
2022-09-25T19:02:38.917Z,97628.81
2022-09-25T19:05:42.557Z,97632.75
2022-09-25T19:08:53.215Z,97632.32
2022-09-25T19:11:56.499Z,97638.34
2022-09-25T19:14:59.621Z,97639.39
2022-09-25T19:18:04.358Z,97645.66
2022-09-25T19:21:07.666Z,97646.33
2022-09-25T19:24:11.105Z,97648.09
2022-09-25T19:27:16.383Z,97644.73
2022-09-25T19:30:19.637Z,97641.53
2022-09-25T19:33:22.676Z,97646.36
2022-09-25T19:36:32.452Z,97646.15
2022-09-25T19:39:56.158Z,97643.10
2022-09-25T19:43:01.117Z,97636.59
2022-09-25T19:46:05.074Z,97635.26
2022-09-25T19:49:08.115Z,97634.88
2022-09-25T19:52:11.610Z,97632.20
2022-09-25T19:55:15.375Z,97632.91
2022-09-25T19:58:23.103Z,97632.74
2022-09-25T20:01:30.362Z,97627.45
2022-09-25T20:04:34.269Z,97627.47
2022-09-25T20:07:37.559Z,97624.96
2022-09-25T20:10:40.818Z,97625.48
2022-09-25T20:13:44.519Z,97623.73
2022-09-25T20:16:47.632Z,97627.73
2022-09-25T20:19:51.462Z,97628.48
2022-09-25T20:22:58.514Z,97621.39
2022-09-25T20:26:17.198Z,97624.19
2022-09-25T20:29:22.931Z,97622.20
2022-09-25T20:32:28.742Z,97621.58
2022-09-25T20:35:34.964Z,97618.02
2022-09-25T20:38:41.034Z,97604.55
2022-09-25T20:41:44.538Z,97599.27
2022-09-25T20:44:51.944Z,97605.05
2022-09-25T20:47:55.289Z,97606.21
2022-09-25T20:50:58.758Z,97600.00
2022-09-25T20:54:12.823Z,97602.35
2022-09-25T20:57:19.326Z,97599.89
2022-09-25T21:00:26.203Z,97600.11
2022-09-25T21:03:33.808Z,97596.32
2022-09-25T21:06:39.429Z,97590.75
2022-09-25T21:09:44.987Z,97590.20
2022-09-25T21:12:52.159Z,97589.44
2022-09-25T21:16:07.515Z,97585.98
2022-09-25T21:19:18.540Z,97581.73
2022-09-25T21:22:21.970Z,97582.94
2022-09-25T21:25:26.869Z,97577.86
2022-09-25T21:28:32.114Z,97580.45
2022-09-25T21:31:41.087Z,97573.70
2022-09-25T21:34:57.433Z,97568.13
2022-09-25T21:38:00.345Z,97563.27
2022-09-25T21:41:09.905Z,97563.80
2022-09-25T21:44:20.602Z,97560.22
2022-09-25T21:47:23.473Z,97560.09
2022-09-25T21:50:26.356Z,97559.80
2022-09-25T21:53:29.875Z,97555.58
2022-09-25T21:56:33.327Z,97557.69
2022-09-25T21:59:36.237Z,97557.08
2022-09-25T22:02:40.382Z,97557.60
2022-09-25T22:05:48.175Z,97552.09
2022-09-25T22:08:54.134Z,97550.95
2022-09-25T22:11:57.479Z,97549.48
2022-09-25T22:15:00.551Z,97546.84
2022-09-25T22:18:03.497Z,97545.75
2022-09-25T22:21:06.379Z,97544.20
2022-09-25T22:24:09.977Z,97542.73
2022-09-25T22:27:12.879Z,97538.24
2022-09-25T22:30:15.875Z,97532.90
2022-09-25T22:33:27.990Z,97526.25
2022-09-25T22:36:32.075Z,97526.49
2022-09-25T22:39:34.982Z,97524.08
2022-09-25T22:42:37.813Z,97525.82
2022-09-25T22:45:49.127Z,97527.08
2022-09-25T22:48:52.300Z,97524.29
2022-09-25T22:51:55.276Z,97531.80
2022-09-25T22:54:58.122Z,97534.80
2022-09-25T22:58:01.053Z,97534.70
2022-09-25T23:01:07.870Z,97531.66
2022-09-25T23:04:13.852Z,97526.84
2022-09-25T23:07:16.701Z,97526.45
2022-09-25T23:10:19.616Z,97526.73
2022-09-25T23:13:22.712Z,97522.08
2022-09-25T23:16:40.695Z,97522.35
2022-09-25T23:19:43.574Z,97517.04
2022-09-25T23:26:16.882Z,97512.89
2022-09-25T23:29:22.200Z,97511.41
2022-09-25T23:32:25.135Z,97505.08
2022-09-25T23:35:28.059Z,97504.94
2022-09-25T23:38:30.981Z,97499.84
2022-09-25T23:41:38.288Z,97496.02
2022-09-25T23:44:41.223Z,97489.34
2022-09-25T23:47:44.184Z,97488.72
2022-09-25T23:50:47.280Z,97483.93
2022-09-25T23:53:50.551Z,97477.54
2022-09-25T23:56:53.546Z,97477.08
2022-09-25T23:59:56.751Z,97467.98
